"WATCHING THE WEATHER TO PROTECT LIFE AND PROPERTY"


Aviation
Satellite (InfraRed)


TNCA 220300Z 09019KT 9999 FEW018 28/24 Q1011 A2988 NOSIG
TNCB 220255Z AUTO 09016KT 060V120 9999 SCT017/// 28/24 Q1012
TNCC 220300Z 11014KT 9999 FEW018 28/24 Q1013 NOSIG